Boise, ID

4:36 PM MDT on September 04, 2015 (GMT -0600)
Bridgeview Central | | Change Station
CLOSE
Current Station
Personal Weather Station
Location: Boise, ID
Elevation: 2785 ft
Nearby Weather Stations

Elev 2785 ft 43.56 °N, 116.29 °W | Updated 2 minutes ago

Clear
Clear
69.1 °F
Feels Like 69.1 °F
N
2.7
Wind Variable Wind from SW

Today
High -- | Low -- °F
--% Chance of Precip.
Yesterday
High -- | Low -- °F
Precip. -- in
7:11 AM 8:15 PM
Waning Gibbous, 55% visible
Pressure 29.65 in
Visibility 10.0 miles
Clouds Clear
Dew Point 47 °F
Humidity 45%
Rainfall 0.00 in
Snow Depth Not available.
UV 6 out of 12
Pollen 7.30 out of 12
Air Quality Not available.
Flu Activity Not available.
METAR KBOI 042153Z VRB06KT 10SM CLR 22/04 A2971 RMK AO2 SLP041 T02220044
Pressure 29.65 in
Visibility 10.0 miles
Clouds Clear
Dew Point 47 °F
Humidity 45%
Rainfall 0.00 in
Snow Depth Not available.
UV 6 out of 12
Pollen 7.30 out of 12
Air Quality Not available.
Flu Activity Not available.
METAR KBOI 042153Z VRB06KT 10SM CLR 22/04 A2971 RMK AO2 SLP041 T02220044

10-Day Weather Forecast

×

Almanac

Astronomy

Sep. 04, 2015 Rise Set
Actual Time
Civil Twilight
Nautical Twilight
Astronomical Twilight
Moon
Length of Visible Light
Length of Day
Tomorrow will be .
, % of the Moon is Illuminated

Today's Extremes

State Highs State Lows

Community

WunderPhotos

Upload Photos

1,852,319 photos uploaded!

WunderBlogs® & News

Nearby

Air Quality

  Air Quality AQ Index Pollutant
Not available.

Snow Depth

Station Depth Elevation

Earthquake Activity

City Distance Mag. Time & Date
Minimum magnitude displayed is 2.5.

Coastal Water Temperatures

Place Temperature

Stations

Nearby Weather Stations

Station Location Temp. Windchill Dew Point Humidity Wind Precip. Elev Updated Type